Time;durP1;ratioP1;P1;durP2;ratioP2;P2;SDS_P1;SDS_P2;PMS_P1;PMS_P2;Temp;Humidity;BMP_temperature;BMP_pressure;BME280_temperature;BME280_humidity;BME280_pressure;Samples;Min_cycle;Max_cycle;Signal;HPM_P1;HPM_P2
2020/12/29 00:02:08;;;;;;;5.10;3.42;;;4.80;99.90;;;;;;5070058;28;20309;-77
2020/12/29 00:04:34;;;;;;;3.00;2.75;;;4.80;99.90;;;;;;5066808;28;20307;-80
2020/12/29 00:07:01;;;;;;;4.55;3.30;;;4.80;99.90;;;;;;5063762;28;20254;-79
2020/12/29 00:09:28;;;;;;;2.85;2.65;;;4.80;99.90;;;;;;5065976;28;20554;-77
2020/12/29 00:11:55;;;;;;;4.20;3.58;;;4.70;99.90;;;;;;5064280;28;20197;-78
2020/12/29 00:14:23;;;;;;;3.83;3.53;;;4.70;99.90;;;;;;5064649;28;20196;-77
2020/12/29 00:16:51;;;;;;;4.45;3.05;;;4.70;99.90;;;;;;5075083;28;20648;-76
2020/12/29 00:19:20;;;;;;;4.97;3.40;;;4.70;99.90;;;;;;5065883;28;20196;-77
2020/12/29 00:21:46;;;;;;;5.90;3.55;;;4.60;99.90;;;;;;5064785;28;20667;-77
2020/12/29 00:24:13;;;;;;;4.10;3.33;;;4.60;99.90;;;;;;5071706;28;20278;-77
2020/12/29 00:26:39;;;;;;;8.73;3.33;;;4.60;99.90;;;;;;5068176;28;20196;-78
2020/12/29 00:29:07;;;;;;;4.25;3.22;;;4.70;99.90;;;;;;5066738;28;20195;-79
2020/12/29 00:31:35;;;;;;;4.82;3.30;;;4.60;99.90;;;;;;5059002;28;20301;-77
2020/12/29 00:34:02;;;;;;;3.55;3.20;;;4.60;99.90;;;;;;5066213;28;20220;-79
2020/12/29 00:36:30;;;;;;;7.80;3.75;;;4.60;99.90;;;;;;5058057;28;20554;-80
2020/12/29 00:38:56;;;;;;;14.32;3.90;;;4.50;99.90;;;;;;5062605;28;20197;-77
2020/12/29 00:41:24;;;;;;;4.00;3.30;;;4.50;99.90;;;;;;5071287;28;20238;-78
2020/12/29 00:43:51;;;;;;;7.35;3.47;;;4.50;99.90;;;;;;5065271;28;20303;-76
2020/12/29 00:46:18;;;;;;;5.10;3.15;;;4.40;99.90;;;;;;5062404;28;20196;-77
2020/12/29 00:48:45;;;;;;;7.55;3.00;;;4.40;99.90;;;;;;5075395;28;20636;-78
2020/12/29 00:51:14;;;;;;;3.95;3.55;;;4.40;99.90;;;;;;5075559;28;20223;-78
2020/12/29 00:53:41;;;;;;;5.45;3.70;;;4.30;99.90;;;;;;5071579;28;20195;-79
2020/12/29 00:56:09;;;;;;;4.97;3.08;;;4.30;99.90;;;;;;5060060;28;20201;-78
2020/12/29 00:58:36;;;;;;;5.15;3.60;;;4.20;99.90;;;;;;5064089;28;20189;-77
2020/12/29 01:01:02;;;;;;;8.52;3.88;;;4.20;99.90;;;;;;5071146;28;20475;-77
2020/12/29 01:03:29;;;;;;;6.22;3.80;;;4.10;99.90;;;;;;5063409;28;20221;-77
2020/12/29 01:05:55;;;;;;;4.63;3.10;;;4.10;99.90;;;;;;5068431;28;20646;-77
2020/12/29 01:08:22;;;;;;;4.25;2.90;;;4.00;99.90;;;;;;5068985;28;20203;-80
2020/12/29 01:10:51;;;;;;;4.20;3.78;;;4.00;99.90;;;;;;5061671;28;20738;-79
2020/12/29 01:13:18;;;;;;;6.43;3.00;;;3.90;99.90;;;;;;5060671;28;20796;-79
2020/12/29 01:15:44;;;;;;;4.28;3.63;;;3.90;99.90;;;;;;5063158;28;20307;-77
2020/12/29 01:18:11;;;;;;;3.95;3.15;;;3.80;99.90;;;;;;5071740;28;20213;-77
2020/12/29 01:20:37;;;;;;;8.52;3.75;;;3.80;99.90;;;;;;5064584;28;20576;-78
2020/12/29 01:23:03;;;;;;;3.15;2.85;;;3.80;99.90;;;;;;5062774;28;20215;-77
2020/12/29 01:25:31;;;;;;;6.43;4.10;;;3.70;99.90;;;;;;5066427;28;20198;-80
2020/12/29 01:27:57;;;;;;;5.32;3.00;;;3.70;99.90;;;;;;5064623;28;20295;-77
2020/12/29 01:30:24;;;;;;;5.45;3.38;;;3.70;99.90;;;;;;5065034;28;20204;-80
2020/12/29 01:32:50;;;;;;;4.00;3.55;;;3.60;99.90;;;;;;5060195;28;20594;-79
2020/12/29 01:35:16;;;;;;;4.63;4.18;;;3.60;99.90;;;;;;5063672;28;20232;-79
2020/12/29 01:37:44;;;;;;;4.82;3.45;;;3.60;99.90;;;;;;5056948;28;20208;-77
2020/12/29 01:40:12;;;;;;;6.50;3.33;;;3.60;99.90;;;;;;5066416;28;20198;-78
2020/12/29 01:42:39;;;;;;;6.97;3.53;;;3.60;99.90;;;;;;5072881;28;20195;-77
2020/12/29 01:45:08;;;;;;;4.78;4.00;;;3.50;99.90;;;;;;5065889;28;20205;-77
2020/12/29 01:47:37;;;;;;;4.68;3.75;;;3.50;99.90;;;;;;5063925;28;20266;-77
2020/12/29 01:50:08;;;;;;;7.28;4.38;;;3.50;99.90;;;;;;5059281;28;20226;-76
2020/12/29 01:52:36;;;;;;;4.75;3.92;;;3.50;99.90;;;;;;5069877;28;20203;-77
2020/12/29 01:55:02;;;;;;;4.05;3.60;;;3.60;99.90;;;;;;5066658;28;20582;-77
2020/12/29 01:57:29;;;;;;;6.32;4.65;;;3.60;99.90;;;;;;5067044;28;20191;-77
2020/12/29 01:59:56;;;;;;;3.85;3.55;;;3.60;99.90;;;;;;5060596;28;20193;-77
2020/12/29 02:02:23;;;;;;;7.80;3.55;;;3.60;99.90;;;;;;5064765;28;20224;-80
2020/12/29 02:04:49;;;;;;;4.47;3.42;;;3.60;99.90;;;;;;5063464;28;20228;-76
2020/12/29 02:07:16;;;;;;;5.15;3.92;;;3.60;99.90;;;;;;5066308;28;20188;-76
2020/12/29 02:09:43;;;;;;;5.75;3.95;;;3.60;99.90;;;;;;5059138;28;20196;-76
2020/12/29 02:12:27;;;;;;;3.92;3.40;;;3.60;99.90;;;;;;5060425;28;20223;-76
2020/12/29 02:14:54;;;;;;;6.30;3.78;;;3.60;99.90;;;;;;5066469;28;20458;-77
2020/12/29 02:17:21;;;;;;;5.85;4.63;;;3.50;99.90;;;;;;5064317;28;20197;-76
2020/12/29 02:19:48;;;;;;;6.20;4.53;;;3.60;99.90;;;;;;5063565;28;20228;-77
2020/12/29 02:22:19;;;;;;;8.00;4.30;;;3.70;99.90;;;;;;5070519;28;20204;-76
2020/12/29 02:24:51;;;;;;;4.40;4.10;;;3.70;99.90;;;;;;5064730;28;20280;-78
2020/12/29 02:27:18;;;;;;;4.03;3.72;;;3.70;99.90;;;;;;5059982;28;20204;-76
2020/12/29 02:29:44;;;;;;;4.88;4.43;;;3.70;99.90;;;;;;5070490;28;20531;-76
2020/12/29 02:32:11;;;;;;;6.30;3.67;;;3.70;99.90;;;;;;5067209;28;20593;-77
2020/12/29 02:34:38;;;;;;;4.40;3.72;;;3.70;99.90;;;;;;5057399;28;20236;-78
2020/12/29 02:37:06;;;;;;;6.15;4.40;;;3.70;99.90;;;;;;5065529;28;20196;-77
2020/12/29 02:39:33;;;;;;;4.38;3.72;;;3.70;99.90;;;;;;5066840;28;20419;-78
2020/12/29 02:42:00;;;;;;;8.35;4.47;;;3.70;99.90;;;;;;5062715;28;20248;-76
2020/12/29 02:44:26;;;;;;;4.32;3.88;;;3.70;99.90;;;;;;5067309;28;20228;-77
2020/12/29 02:46:52;;;;;;;4.68;4.22;;;3.70;99.90;;;;;;5062950;28;20200;-76
2020/12/29 02:49:19;;;;;;;11.82;3.90;;;3.70;99.90;;;;;;5058778;28;20201;-76
2020/12/29 02:51:45;;;;;;;4.13;3.72;;;3.70;99.90;;;;;;5059179;28;20191;-76
2020/12/29 02:54:12;;;;;;;4.95;4.60;;;3.70;99.90;;;;;;5067642;28;20199;-77
2020/12/29 02:56:39;;;;;;;4.28;3.90;;;3.70;99.90;;;;;;5066368;28;20282;-76
2020/12/29 02:59:06;;;;;;;5.57;4.80;;;3.70;99.90;;;;;;5064654;28;20200;-77
2020/12/29 03:01:32;;;;;;;4.78;3.50;;;3.70;99.90;;;;;;5062330;28;20224;-77
2020/12/29 03:03:58;;;;;;;6.80;4.10;;;3.70;99.90;;;;;;5059941;28;20231;-76
2020/12/29 03:06:25;;;;;;;4.57;3.63;;;3.70;99.90;;;;;;5063786;28;20192;-77
2020/12/29 03:08:51;;;;;;;5.88;4.78;;;3.70;99.90;;;;;;5071376;28;20215;-76
2020/12/29 03:11:24;;;;;;;4.53;3.85;;;3.70;99.90;;;;;;5070199;28;20230;-78
2020/12/29 03:13:52;;;;;;;4.60;4.20;;;3.70;99.90;;;;;;5063853;28;20212;-76
2020/12/29 03:16:18;;;;;;;4.22;3.92;;;3.70;99.90;;;;;;5064143;28;20723;-77
2020/12/29 03:18:44;;;;;;;4.80;4.40;;;3.70;99.90;;;;;;5065518;28;20191;-77
2020/12/29 03:21:11;;;;;;;8.13;5.82;;;3.70;99.90;;;;;;5068262;28;20196;-76
2020/12/29 03:23:37;;;;;;;12.73;8.13;;;3.80;99.90;;;;;;5063590;28;20219;-78
2020/12/29 03:26:04;;;;;;;10.32;5.38;;;3.80;99.90;;;;;;5067838;28;20261;-78
2020/12/29 03:28:30;;;;;;;5.78;4.35;;;3.80;99.90;;;;;;5060925;28;20556;-77
2020/12/29 03:30:57;;;;;;;4.20;3.75;;;3.80;99.90;;;;;;5065435;28;20410;-79
2020/12/29 03:33:24;;;;;;;5.50;4.38;;;3.80;99.90;;;;;;5061430;28;20194;-76
2020/12/29 03:35:50;;;;;;;5.03;4.53;;;3.70;99.90;;;;;;5064848;28;20203;-76
2020/12/29 03:38:17;;;;;;;7.60;4.75;;;3.70;99.90;;;;;;5061981;28;20226;-76
2020/12/29 03:40:43;;;;;;;5.35;3.90;;;3.70;99.90;;;;;;5054894;28;20192;-78
2020/12/29 03:43:13;;;;;;;4.22;3.83;;;3.70;99.90;;;;;;5060655;28;20596;-77
2020/12/29 03:45:40;;;;;;;4.57;4.18;;;3.70;99.90;;;;;;5059387;28;20196;-77
2020/12/29 03:48:08;;;;;;;5.03;4.53;;;3.70;99.90;;;;;;5073161;28;20199;-78
2020/12/29 03:50:34;;;;;;;5.03;4.05;;;3.70;99.90;;;;;;5065005;28;20331;-77
2020/12/29 03:53:01;;;;;;;4.93;4.40;;;3.70;99.90;;;;;;5062871;28;20203;-79
2020/12/29 03:55:27;;;;;;;4.80;4.47;;;3.60;99.90;;;;;;5057323;28;20193;-80
2020/12/29 03:57:53;;;;;;;4.53;4.18;;;3.60;99.90;;;;;;5066425;28;20203;-77
2020/12/29 04:00:20;;;;;;;5.20;4.30;;;3.60;99.90;;;;;;5054516;28;21603;-77
2020/12/29 04:02:46;;;;;;;5.55;4.50;;;3.60;99.90;;;;;;5064245;28;20334;-77
2020/12/29 04:05:13;;;;;;;9.55;4.22;;;3.50;99.90;;;;;;5071298;28;20230;-77
2020/12/29 04:07:40;;;;;;;9.90;5.72;;;3.50;99.90;;;;;;5067610;28;20519;-79
2020/12/29 04:10:06;;;;;;;6.60;6.00;;;3.50;99.90;;;;;;5061049;28;20200;-77
2020/12/29 04:12:33;;;;;;;7.43;6.72;;;3.50;99.90;;;;;;5066330;28;20218;-78
2020/12/29 04:14:59;;;;;;;8.13;6.00;;;3.50;99.90;;;;;;5056574;28;20193;-78
2020/12/29 04:17:26;;;;;;;6.10;5.60;;;3.50;99.90;;;;;;5076398;28;20687;-77
2020/12/29 04:19:52;;;;;;;6.65;6.05;;;3.50;99.90;;;;;;5072305;28;20656;-77
2020/12/29 04:22:20;;;;;;;6.78;6.05;;;3.50;99.90;;;;;;5065333;28;20196;-77
2020/12/29 04:24:46;;;;;;;13.45;5.90;;;3.50;99.90;;;;;;5060049;28;20260;-77
2020/12/29 04:27:12;;;;;;;7.82;6.65;;;3.50;99.90;;;;;;5070134;28;20631;-77
2020/12/29 04:29:39;;;;;;;8.43;6.78;;;3.40;99.90;;;;;;5068189;28;20566;-77
2020/12/29 04:32:05;;;;;;;6.30;5.70;;;3.40;99.90;;;;;;5073180;28;20200;-78
2020/12/29 04:34:31;;;;;;;12.88;6.22;;;3.40;99.90;;;;;;5056999;28;20207;-77
2020/12/29 04:36:58;;;;;;;5.80;5.30;;;3.40;99.90;;;;;;5064291;28;20195;-80
2020/12/29 04:39:26;;;;;;;4.57;4.15;;;3.30;99.90;;;;;;5060427;28;20204;-77
2020/12/29 04:41:59;;;;;;;6.10;5.03;;;3.30;99.90;;;;;;5075690;28;20602;-77
2020/12/29 04:44:27;;;;;;;6.38;4.47;;;3.20;99.90;;;;;;5063726;28;20220;-78
2020/12/29 04:46:54;;;;;;;6.00;5.13;;;3.20;99.90;;;;;;5069180;28;20645;-77
2020/12/29 04:49:22;;;;;;;4.57;4.22;;;3.20;99.90;;;;;;5074641;28;20298;-77
2020/12/29 04:51:49;;;;;;;4.32;4.03;;;3.10;99.90;;;;;;5066549;28;20290;-77
2020/12/29 04:54:18;;;;;;;5.05;4.65;;;3.10;99.90;;;;;;5063208;28;20192;-77
2020/12/29 04:56:55;;;;;;;6.55;4.75;;;3.10;99.90;;;;;;5067111;28;20211;-77
2020/12/29 04:59:22;;;;;;;7.13;4.82;;;3.10;99.90;;;;;;5064444;28;20607;-76
2020/12/29 05:01:48;;;;;;;5.30;4.90;;;3.10;99.90;;;;;;5067747;28;20726;-78
2020/12/29 05:04:15;;;;;;;7.53;4.47;;;3.10;99.90;;;;;;5061640;28;20285;-77
2020/12/29 05:06:41;;;;;;;6.00;5.30;;;3.10;99.90;;;;;;5057358;28;20282;-78
2020/12/29 05:09:08;;;;;;;11.95;5.45;;;3.10;99.90;;;;;;5058131;28;20201;-77
2020/12/29 05:11:36;;;;;;;6.45;5.85;;;3.10;99.90;;;;;;5061630;28;20605;-77
2020/12/29 05:14:04;;;;;;;6.38;5.78;;;3.00;99.90;;;;;;5062823;28;20220;-77
2020/12/29 05:16:30;;;;;;;14.50;5.55;;;3.10;99.90;;;;;;5067176;28;20413;-77
2020/12/29 05:18:57;;;;;;;6.32;5.30;;;3.10;99.90;;;;;;5071534;28;20254;-80
2020/12/29 05:21:25;;;;;;;5.68;5.03;;;3.00;99.90;;;;;;5064428;28;20200;-77
2020/12/29 05:23:53;;;;;;;6.20;5.60;;;3.00;99.90;;;;;;5063982;28;20215;-78
2020/12/29 05:26:24;;;;;;;6.18;5.57;;;3.00;99.90;;;;;;5065288;28;20678;-78
2020/12/29 05:28:51;;;;;;;9.10;5.00;;;3.00;99.90;;;;;;5061536;28;20642;-77
2020/12/29 05:31:18;;;;;;;8.38;5.15;;;3.00;99.90;;;;;;5066676;28;20199;-76
2020/12/29 05:33:46;;;;;;;5.70;5.05;;;3.00;99.90;;;;;;5062389;28;20210;-80
2020/12/29 05:36:13;;;;;;;7.40;5.07;;;3.00;99.90;;;;;;5068811;28;20191;-77
2020/12/29 05:38:42;;;;;;;5.03;4.60;;;3.00;99.90;;;;;;5064676;28;20195;-79
2020/12/29 05:41:21;;;;;;;7.60;4.90;;;3.00;99.90;;;;;;5064897;28;20220;-77
2020/12/29 05:44:00;;;;;;;4.70;4.30;;;3.00;99.90;;;;;;5068966;28;20556;-78
2020/12/29 05:46:28;;;;;;;5.28;4.75;;;3.00;99.90;;;;;;5061588;28;20691;-80
2020/12/29 05:48:55;;;;;;;5.32;4.82;;;3.00;99.90;;;;;;5063023;28;20198;-78
2020/12/29 05:51:23;;;;;;;5.68;5.18;;;3.00;99.90;;;;;;5068615;28;20207;-77
2020/12/29 05:53:50;;;;;;;5.28;4.63;;;3.00;99.90;;;;;;5068132;28;20563;-78
2020/12/29 05:56:19;;;;;;;8.70;5.22;;;3.00;99.90;;;;;;5061733;28;20198;-81
2020/12/29 05:58:45;;;;;;;4.95;4.55;;;2.90;99.90;;;;;;5056836;28;20213;-80
2020/12/29 06:01:12;;;;;;;6.40;5.45;;;2.90;99.90;;;;;;5065240;28;20277;-81
2020/12/29 06:03:42;;;;;;;6.30;5.78;;;2.90;99.90;;;;;;5063144;28;20307;-77
2020/12/29 06:06:09;;;;;;;6.35;4.65;;;2.90;99.90;;;;;;5066238;28;20195;-77
2020/12/29 06:08:36;;;;;;;7.20;5.20;;;2.90;99.90;;;;;;5069916;28;20206;-76
2020/12/29 06:11:05;;;;;;;13.43;6.28;;;2.80;99.90;;;;;;5059533;28;20244;-76
2020/12/29 06:13:37;;;;;;;7.22;4.90;;;2.80;99.90;;;;;;5069285;28;20701;-78
2020/12/29 06:16:05;;;;;;;5.63;5.20;;;2.90;99.90;;;;;;5066305;28;20202;-75
2020/12/29 06:18:35;;;;;;;9.07;5.90;;;2.90;99.90;;;;;;5066610;28;20234;-78
2020/12/29 06:21:07;;;;;;;6.38;5.78;;;2.90;99.90;;;;;;5069086;28;20285;-76
2020/12/29 06:23:42;;;;;;;5.35;4.85;;;3.00;99.90;;;;;;5068294;28;20227;-76
2020/12/29 06:26:09;;;;;;;6.28;5.68;;;3.00;99.90;;;;;;5066137;28;20320;-76
2020/12/29 06:28:48;;;;;;;6.07;5.45;;;3.00;99.90;;;;;;5060816;28;20268;-76
2020/12/29 06:31:21;;;;;;;5.47;5.03;;;3.00;99.90;;;;;;5066779;28;20206;-78
2020/12/29 06:33:53;;;;;;;6.38;5.70;;;3.00;99.90;;;;;;5065218;28;20222;-77
2020/12/29 06:36:21;;;;;;;7.50;6.00;;;3.00;99.90;;;;;;5055243;28;20231;-78
2020/12/29 06:38:50;;;;;;;5.97;5.47;;;3.00;99.90;;;;;;5059246;28;20208;-76
2020/12/29 06:41:19;;;;;;;5.97;5.47;;;3.00;99.90;;;;;;5066343;28;20708;-76
2020/12/29 06:43:46;;;;;;;7.00;6.30;;;3.00;99.90;;;;;;5062792;28;20248;-76
2020/12/29 06:46:14;;;;;;;6.38;5.85;;;3.00;99.90;;;;;;5065045;28;20534;-76
2020/12/29 06:48:41;;;;;;;6.72;5.90;;;3.00;99.90;;;;;;5060615;28;20199;-76
2020/12/29 06:51:09;;;;;;;6.38;5.88;;;3.00;99.90;;;;;;5069247;28;20209;-76
2020/12/29 06:53:38;;;;;;;7.00;5.55;;;3.00;99.90;;;;;;5062470;28;20200;-76
2020/12/29 06:56:05;;;;;;;8.40;5.93;;;3.00;99.90;;;;;;5065969;28;20282;-77
2020/12/29 06:58:32;;;;;;;6.75;6.13;;;3.00;99.90;;;;;;5069383;28;20209;-77
2020/12/29 07:01:21;;;;;;;8.52;5.90;;;3.00;99.90;;;;;;5063212;28;20235;-76
2020/12/29 07:04:00;;;;;;;6.95;6.25;;;3.10;99.90;;;;;;5061084;28;20235;-78
2020/12/29 07:06:28;;;;;;;5.97;5.57;;;3.10;99.90;;;;;;5059945;28;20199;-75
2020/12/29 07:09:01;;;;;;;7.60;6.88;;;3.10;99.90;;;;;;5063148;28;20198;-80
2020/12/29 07:11:28;;;;;;;7.53;5.85;;;3.10;99.90;;;;;;5061848;28;20188;-77
2020/12/29 07:13:54;;;;;;;6.80;6.18;;;3.10;99.90;;;;;;5070516;28;20214;-80
2020/12/29 07:16:24;;;;;;;6.55;6.00;;;3.10;99.90;;;;;;5063114;28;20256;-76
2020/12/29 07:18:51;;;;;;;7.43;6.72;;;3.00;99.90;;;;;;5066083;28;20646;-76
2020/12/29 07:21:26;;;;;;;7.18;6.47;;;3.10;99.90;;;;;;5067808;28;20191;-80
2020/12/29 07:23:53;;;;;;;8.18;5.80;;;3.10;99.90;;;;;;5065890;28;20222;-76
2020/12/29 07:26:22;;;;;;;7.97;6.25;;;3.10;99.90;;;;;;5068443;28;20612;-78
2020/12/29 07:28:51;;;;;;;6.93;6.38;;;3.10;99.90;;;;;;5056109;28;20196;-78
2020/12/29 07:31:18;;;;;;;6.68;5.80;;;3.10;99.90;;;;;;5062883;28;20192;-79
2020/12/29 07:33:50;;;;;;;6.90;6.20;;;3.10;99.90;;;;;;5069450;28;20200;-77
2020/12/29 07:36:20;;;;;;;6.15;5.57;;;3.20;99.90;;;;;;5058238;28;20199;-76
2020/12/29 07:38:49;;;;;;;7.90;6.13;;;3.10;99.90;;;;;;5066237;28;20214;-76
2020/12/29 07:41:17;;;;;;;8.25;6.35;;;3.10;99.90;;;;;;5057480;28;20731;-75
2020/12/29 07:43:45;;;;;;;9.02;6.20;;;3.20;99.90;;;;;;5062266;28;20211;-76
2020/12/29 07:46:11;;;;;;;7.72;6.35;;;3.20;99.90;;;;;;5058573;28;20193;-77
2020/12/29 07:48:37;;;;;;;7.90;6.68;;;3.20;99.90;;;;;;5063461;28;20210;-78
2020/12/29 07:51:05;;;;;;;7.35;6.40;;;3.20;99.90;;;;;;5061073;28;20199;-77
2020/12/29 07:53:32;;;;;;;8.52;5.70;;;3.20;99.90;;;;;;5057861;28;20824;-76
2020/12/29 07:55:58;;;;;;;8.10;6.85;;;3.20;99.90;;;;;;5064001;28;20210;-76
2020/12/29 07:58:25;;;;;;;6.20;5.47;;;3.20;99.90;;;;;;5070339;28;20755;-76
2020/12/29 08:00:52;;;;;;;7.18;5.78;;;3.20;99.90;;;;;;5066688;28;20296;-78
2020/12/29 08:03:19;;;;;;;7.70;6.55;;;3.30;99.90;;;;;;5063822;28;20795;-77
2020/12/29 08:05:46;;;;;;;8.00;6.90;;;3.30;99.90;;;;;;5069308;28;20795;-76
2020/12/29 08:08:14;;;;;;;7.70;7.00;;;3.30;99.90;;;;;;5059495;28;20675;-76
2020/12/29 08:10:42;;;;;;;7.05;6.35;;;3.30;99.90;;;;;;5058840;28;20287;-75
2020/12/29 08:13:10;;;;;;;9.05;7.20;;;3.30;99.90;;;;;;5055687;28;20211;-78
2020/12/29 08:15:37;;;;;;;8.15;7.30;;;3.30;99.90;;;;;;5059414;28;20192;-76
2020/12/29 08:18:06;;;;;;;7.00;6.30;;;3.30;99.90;;;;;;5069800;28;20227;-76
2020/12/29 08:20:33;;;;;;;7.65;6.65;;;3.40;99.90;;;;;;5060082;28;20206;-75
2020/12/29 08:23:03;;;;;;;6.75;6.00;;;3.40;99.90;;;;;;5064278;28;20204;-78
2020/12/29 08:25:30;;;;;;;7.38;6.03;;;3.40;99.90;;;;;;5063885;28;20226;-75
2020/12/29 08:27:59;;;;;;;7.90;6.75;;;3.40;99.90;;;;;;5065196;28;20568;-76
2020/12/29 08:30:26;;;;;;;9.25;6.63;;;3.50;99.90;;;;;;5062787;28;20196;-76
2020/12/29 08:32:54;;;;;;;7.65;6.10;;;3.50;99.90;;;;;;5070621;28;20195;-76
2020/12/29 08:35:22;;;;;;;8.82;6.68;;;3.50;99.90;;;;;;5071687;28;20687;-75
2020/12/29 08:38:09;;;;;;;7.50;6.03;;;3.50;99.90;;;;;;5065572;28;20217;-78
2020/12/29 08:40:41;;;;;;;6.85;5.75;;;3.60;99.90;;;;;;5063454;28;20222;-78
2020/12/29 08:43:09;;;;;;;8.40;7.10;;;3.60;99.90;;;;;;5062729;28;20235;-81
2020/12/29 08:45:35;;;;;;;7.80;6.82;;;3.60;99.90;;;;;;5064132;28;20227;-77
2020/12/29 08:48:01;;;;;;;11.65;5.80;;;3.60;99.90;;;;;;5061889;28;20188;-76
2020/12/29 08:50:31;;;;;;;10.50;6.03;;;3.60;99.90;;;;;;5061149;28;20196;-77
2020/12/29 08:53:06;;;;;;;10.57;6.07;;;3.60;99.90;;;;;;5058643;28;20227;-79
2020/12/29 08:55:33;;;;;;;9.20;6.72;;;3.70;99.90;;;;;;5064560;28;20199;-79
2020/12/29 08:58:00;;;;;;;6.68;5.82;;;3.70;99.90;;;;;;5058716;28;20303;-77
2020/12/29 09:00:27;;;;;;;14.07;7.00;;;3.70;99.90;;;;;;5062127;28;20188;-80
2020/12/29 09:02:54;;;;;;;10.15;5.20;;;3.80;99.90;;;;;;5062446;28;20231;-77
2020/12/29 09:05:21;;;;;;;7.55;6.03;;;3.80;99.90;;;;;;5058570;28;20223;-77
2020/12/29 09:07:49;;;;;;;8.70;6.72;;;3.80;99.90;;;;;;5061936;28;20548;-77
2020/12/29 09:10:16;;;;;;;11.70;8.10;;;3.90;99.90;;;;;;5060516;28;20191;-77
2020/12/29 09:12:43;;;;;;;11.65;6.78;;;3.90;99.90;;;;;;5061575;28;20220;-80
2020/12/29 09:15:10;;;;;;;8.80;7.45;;;3.90;99.90;;;;;;5062409;28;20569;-78
2020/12/29 09:17:38;;;;;;;9.35;7.22;;;3.90;99.90;;;;;;5067755;28;20188;-79
2020/12/29 09:20:24;;;;;;;10.07;7.93;;;3.90;99.90;;;;;;5056266;28;20202;-76
2020/12/29 09:22:54;;;;;;;8.57;7.68;;;4.00;99.90;;;;;;5071143;28;20203;-79
2020/12/29 09:25:29;;;;;;;9.73;7.05;;;4.00;99.90;;;;;;5065505;28;20227;-78
2020/12/29 09:28:16;;;;;;;11.70;8.20;;;4.10;99.90;;;;;;5067941;28;20652;-76
2020/12/29 09:30:44;;;;;;;8.13;7.28;;;4.10;99.90;;;;;;5073829;28;20192;-77
2020/12/29 09:33:11;;;;;;;10.55;9.32;;;4.10;99.90;;;;;;5064610;28;20196;-77
2020/12/29 09:35:38;;;;;;;10.23;7.68;;;4.20;99.90;;;;;;5066642;28;20555;-78
2020/12/29 09:38:05;;;;;;;11.43;7.95;;;4.20;99.90;;;;;;5063145;28;20212;-77
2020/12/29 09:40:32;;;;;;;17.25;9.15;;;4.20;99.90;;;;;;5071264;28;20188;-77
2020/12/29 09:42:58;;;;;;;16.05;9.00;;;4.30;99.90;;;;;;5066365;28;20196;-82
2020/12/29 09:45:25;;;;;;;12.48;8.90;;;4.30;99.90;;;;;;5064969;28;20261;-79
2020/12/29 09:47:52;;;;;;;11.70;8.43;;;4.30;99.90;;;;;;5060735;28;20268;-79
2020/12/29 09:50:20;;;;;;;13.70;9.15;;;4.40;99.90;;;;;;5073017;28;20192;-77
2020/12/29 09:52:47;;;;;;;17.15;9.20;;;4.40;99.90;;;;;;5060406;28;20196;-77
2020/12/29 09:55:14;;;;;;;17.20;9.95;;;4.40;99.90;;;;;;5065257;28;20193;-78
2020/12/29 09:57:40;;;;;;;14.73;10.40;;;4.50;99.90;;;;;;5064156;28;20206;-78
2020/12/29 10:00:08;;;;;;;15.85;10.10;;;4.50;99.90;;;;;;5064197;28;20709;-76
2020/12/29 10:02:34;;;;;;;15.55;10.90;;;4.50;99.90;;;;;;5068158;28;20311;-78
2020/12/29 10:05:00;;;;;;;18.20;10.73;;;4.60;99.90;;;;;;5064704;28;20716;-79
2020/12/29 10:07:27;;;;;;;17.08;11.88;;;4.60;99.90;;;;;;5071865;28;20197;-77
2020/12/29 10:09:53;;;;;;;13.70;11.85;;;4.60;99.90;;;;;;5066920;28;20210;-77
2020/12/29 10:12:21;;;;;;;15.25;12.32;;;4.70;99.90;;;;;;5069947;28;20234;-76
2020/12/29 10:14:47;;;;;;;16.08;12.30;;;4.70;99.90;;;;;;5064414;28;20189;-81
2020/12/29 10:17:13;;;;;;;17.00;12.40;;;4.70;99.90;;;;;;5066210;28;20205;-79
2020/12/29 10:19:40;;;;;;;20.60;14.35;;;4.80;99.90;;;;;;5063801;28;20583;-77
2020/12/29 10:22:06;;;;;;;15.18;13.48;;;4.80;99.90;;;;;;5064942;28;20196;-77
2020/12/29 10:24:32;;;;;;;16.90;13.07;;;4.80;99.90;;;;;;5067529;28;20578;-78
2020/12/29 10:26:59;;;;;;;18.55;14.13;;;4.90;99.90;;;;;;5067990;28;20193;-77
2020/12/29 10:29:26;;;;;;;21.38;14.40;;;5.00;99.90;;;;;;5058609;28;20208;-79
2020/12/29 10:31:53;;;;;;;24.25;14.88;;;5.00;99.90;;;;;;5068196;28;20199;-82
2020/12/29 10:34:19;;;;;;;20.52;15.68;;;5.00;99.90;;;;;;5059828;28;20197;-79
2020/12/29 10:36:46;;;;;;;21.60;15.10;;;5.00;99.90;;;;;;5068002;28;20204;-77
2020/12/29 10:39:13;;;;;;;24.20;16.35;;;5.10;99.90;;;;;;5065546;28;20201;-79
2020/12/29 10:41:40;;;;;;;29.67;15.75;;;5.10;99.90;;;;;;5056674;28;20199;-79
2020/12/29 10:44:08;;;;;;;24.40;15.88;;;5.10;99.90;;;;;;5059045;28;20216;-77
2020/12/29 10:46:35;;;;;;;23.58;16.13;;;5.10;99.90;;;;;;5067654;28;20301;-80
2020/12/29 10:49:02;;;;;;;22.73;16.40;;;5.20;99.90;;;;;;5069184;28;20193;-77
2020/12/29 10:51:28;;;;;;;27.05;16.88;;;5.20;99.90;;;;;;5066823;28;20200;-77
2020/12/29 10:53:55;;;;;;;28.58;16.70;;;5.20;99.90;;;;;;5062964;28;20287;-79
2020/12/29 10:56:22;;;;;;;23.95;16.02;;;5.30;99.90;;;;;;5058683;28;20192;-78
2020/12/29 10:58:48;;;;;;;20.58;15.73;;;5.20;99.90;;;;;;5061539;28;20193;-78
2020/12/29 11:01:21;;;;;;;23.05;16.30;;;5.30;99.90;;;;;;5063946;28;20229;-78
2020/12/29 11:03:49;;;;;;;24.35;14.30;;;5.30;99.90;;;;;;5056091;28;20217;-77
2020/12/29 11:06:16;;;;;;;23.15;15.05;;;5.30;99.90;;;;;;5075557;28;20684;-77
2020/12/29 11:08:42;;;;;;;20.63;15.10;;;5.30;99.90;;;;;;5064212;28;20631;-78
2020/12/29 11:11:09;;;;;;;24.25;15.43;;;5.40;99.90;;;;;;5066372;28;20203;-78
2020/12/29 11:13:35;;;;;;;23.58;14.73;;;5.40;99.90;;;;;;5062602;28;20212;-77
2020/12/29 11:16:02;;;;;;;16.83;13.10;;;5.40;99.90;;;;;;5063393;28;20755;-79
2020/12/29 11:18:29;;;;;;;20.80;14.85;;;5.40;99.90;;;;;;5058630;28;20198;-86
2020/12/29 11:20:56;;;;;;;23.10;14.50;;;5.40;99.90;;;;;;5060659;28;20323;-77
2020/12/29 11:23:22;;;;;;;19.00;15.48;;;5.40;99.90;;;;;;5065840;28;20200;-78
2020/12/29 11:25:49;;;;;;;16.05;13.13;;;5.50;99.90;;;;;;5060597;28;20223;-78
2020/12/29 11:28:16;;;;;;;14.27;11.15;;;5.50;99.90;;;;;;5065239;28;20218;-78
2020/12/29 11:30:43;;;;;;;15.45;11.48;;;5.50;99.90;;;;;;5069173;28;20201;-78
2020/12/29 11:33:09;;;;;;;17.77;12.27;;;5.50;99.90;;;;;;5062856;28;20219;-80
2020/12/29 11:35:36;;;;;;;16.33;10.98;;;5.60;99.90;;;;;;5062439;28;20656;-77
2020/12/29 11:38:03;;;;;;;14.95;10.48;;;5.60;99.90;;;;;;5068295;28;20279;-78
2020/12/29 11:40:29;;;;;;;14.35;10.90;;;5.60;99.90;;;;;;5063007;28;20198;-78
2020/12/29 11:42:55;;;;;;;22.73;12.20;;;5.60;99.90;;;;;;5065666;28;20192;-77
2020/12/29 11:45:22;;;;;;;18.50;12.40;;;5.60;99.90;;;;;;5059540;28;20752;-77
2020/12/29 11:47:48;;;;;;;15.35;10.90;;;5.70;99.90;;;;;;5058483;28;20203;-78
2020/12/29 11:50:15;;;;;;;15.95;11.48;;;5.70;99.90;;;;;;5065559;28;20195;-79
2020/12/29 11:52:42;;;;;;;14.35;10.65;;;5.70;99.90;;;;;;5061667;28;20199;-81
2020/12/29 11:55:10;;;;;;;19.15;11.85;;;5.70;99.90;;;;;;5064708;28;20700;-78
2020/12/29 11:57:37;;;;;;;13.50;10.10;;;5.70;99.90;;;;;;5059220;28;20205;-79
2020/12/29 12:00:06;;;;;;;14.23;11.35;;;5.80;99.90;;;;;;5064819;28;20714;-78
2020/12/29 12:02:32;;;;;;;15.75;10.70;;;5.80;99.90;;;;;;5065807;28;20231;-80
2020/12/29 12:04:59;;;;;;;23.65;11.50;;;5.80;99.90;;;;;;5065989;28;20231;-82
2020/12/29 12:07:25;;;;;;;20.30;11.15;;;5.90;99.90;;;;;;5064542;28;20195;-77
2020/12/29 12:09:51;;;;;;;15.70;11.15;;;5.90;99.90;;;;;;5064245;28;20200;-79
2020/12/29 12:12:19;;;;;;;19.27;10.98;;;5.90;99.90;;;;;;5076897;28;20664;-78
2020/12/29 12:14:45;;;;;;;12.55;10.15;;;6.00;99.90;;;;;;5062208;28;20193;-80
2020/12/29 12:17:12;;;;;;;14.27;9.48;;;6.00;99.90;;;;;;5062318;28;20185;-78
2020/12/29 12:19:38;;;;;;;13.88;8.60;;;6.00;99.90;;;;;;5063574;28;20205;-78
2020/12/29 12:22:04;;;;;;;12.60;10.32;;;6.00;99.90;;;;;;5069342;28;20279;-80
2020/12/29 12:24:31;;;;;;;12.15;9.65;;;6.00;99.90;;;;;;5060979;28;20232;-80
2020/12/29 12:26:57;;;;;;;10.57;9.48;;;6.00;99.90;;;;;;5065872;28;20289;-78
2020/12/29 12:29:24;;;;;;;13.30;9.68;;;6.00;99.90;;;;;;5065781;28;20192;-81
2020/12/29 12:31:51;;;;;;;11.85;8.60;;;6.00;99.90;;;;;;5063589;28;20228;-78
2020/12/29 12:34:17;;;;;;;10.93;9.77;;;6.00;99.90;;;;;;5065986;28;20205;-77
2020/12/29 12:36:44;;;;;;;13.68;9.93;;;6.00;99.90;;;;;;5067199;28;20197;-78
2020/12/29 12:39:10;;;;;;;11.93;9.50;;;6.00;99.90;;;;;;5066374;28;20197;-78
2020/12/29 12:41:36;;;;;;;12.23;8.73;;;6.00;99.90;;;;;;5068674;28;20200;-78
2020/12/29 12:44:02;;;;;;;18.40;11.07;;;6.00;99.90;;;;;;5076636;28;20192;-78
2020/12/29 12:46:30;;;;;;;10.27;8.23;;;6.10;99.90;;;;;;5064975;28;20211;-78
2020/12/29 12:48:56;;;;;;;11.82;8.38;;;6.10;99.90;;;;;;5067675;28;20206;-83
2020/12/29 12:51:22;;;;;;;11.00;8.13;;;6.10;99.90;;;;;;5070501;28;20193;-78
2020/12/29 12:53:49;;;;;;;12.40;9.05;;;6.10;99.90;;;;;;5066494;28;20231;-80
2020/12/29 12:56:15;;;;;;;11.38;8.85;;;6.10;99.90;;;;;;5064727;28;20274;-81